sensor_id;sensor_type;location;lat;lon;timestamp;pressure;altitude;pressure_sealevel;temperature;humidity
71948;BME280;63257;55.082;38.772;2023-08-17T00:00:30;100548.13;;;16.78;86.07
71948;BME280;63257;55.082;38.772;2023-08-17T00:02:56;100557.59;;;16.82;86.26
71948;BME280;63257;55.082;38.772;2023-08-17T00:05:22;100562.50;;;16.75;86.65
71948;BME280;63257;55.082;38.772;2023-08-17T00:07:47;100564.44;;;16.73;87.15
71948;BME280;63257;55.082;38.772;2023-08-17T00:10:13;100557.69;;;16.68;87.30
71948;BME280;63257;55.082;38.772;2023-08-17T00:12:39;100558.56;;;16.68;87.42
71948;BME280;63257;55.082;38.772;2023-08-17T00:15:06;100556.31;;;16.62;87.48
71948;BME280;63257;55.082;38.772;2023-08-17T00:17:32;100567.50;;;16.67;87.42
71948;BME280;63257;55.082;38.772;2023-08-17T00:19:58;100561.53;;;16.63;87.74
71948;BME280;63257;55.082;38.772;2023-08-17T00:22:24;100571.25;;;16.65;87.81
71948;BME280;63257;55.082;38.772;2023-08-17T00:24:49;100573.78;;;16.66;87.84
71948;BME280;63257;55.082;38.772;2023-08-17T00:27:15;100556.84;;;16.54;87.98
71948;BME280;63257;55.082;38.772;2023-08-17T00:29:43;100563.13;;;16.53;88.13
71948;BME280;63257;55.082;38.772;2023-08-17T00:32:09;100558.31;;;16.45;88.60
71948;BME280;63257;55.082;38.772;2023-08-17T00:34:36;100571.03;;;16.55;88.48
71948;BME280;63257;55.082;38.772;2023-08-17T00:37:02;100553.31;;;16.41;88.93
71948;BME280;63257;55.082;38.772;2023-08-17T00:39:28;100577.06;;;16.44;89.11
71948;BME280;63257;55.082;38.772;2023-08-17T00:41:54;100567.81;;;16.37;89.21
71948;BME280;63257;55.082;38.772;2023-08-17T00:44:20;100582.72;;;16.39;89.65
71948;BME280;63257;55.082;38.772;2023-08-17T00:46:48;100569.28;;;16.28;89.92
71948;BME280;63257;55.082;38.772;2023-08-17T00:49:14;100581.44;;;16.32;90.39
71948;BME280;63257;55.082;38.772;2023-08-17T00:51:41;100586.00;;;16.30;90.45
71948;BME280;63257;55.082;38.772;2023-08-17T00:54:09;100571.50;;;16.21;90.92
71948;BME280;63257;55.082;38.772;2023-08-17T00:56:36;100584.94;;;16.20;91.23
71948;BME280;63257;55.082;38.772;2023-08-17T00:59:02;100589.59;;;16.16;91.61
71948;BME280;63257;55.082;38.772;2023-08-17T01:01:28;100586.38;;;16.11;92.07
71948;BME280;63257;55.082;38.772;2023-08-17T01:03:54;100585.75;;;16.07;92.37
71948;BME280;63257;55.082;38.772;2023-08-17T01:06:20;100559.94;;;15.95;92.68
71948;BME280;63257;55.082;38.772;2023-08-17T01:08:46;100591.06;;;16.07;92.57
71948;BME280;63257;55.082;38.772;2023-08-17T01:11:32;100589.63;;;16.02;92.94
71948;BME280;63257;55.082;38.772;2023-08-17T01:14:08;100575.03;;;15.94;93.15
71948;BME280;63257;55.082;38.772;2023-08-17T01:16:59;100578.25;;;16.00;92.99
71948;BME280;63257;55.082;38.772;2023-08-17T01:19:27;100584.88;;;16.07;92.84
71948;BME280;63257;55.082;38.772;2023-08-17T01:22:05;100576.44;;;16.00;93.00
71948;BME280;63257;55.082;38.772;2023-08-17T01:24:31;100565.44;;;15.92;93.26
71948;BME280;63257;55.082;38.772;2023-08-17T01:26:57;100581.84;;;15.99;93.26
71948;BME280;63257;55.082;38.772;2023-08-17T01:29:23;100558.91;;;15.83;93.56
71948;BME280;63257;55.082;38.772;2023-08-17T01:34:48;100567.75;;;15.84;94.60
71948;BME280;63257;55.082;38.772;2023-08-17T01:37:18;100571.38;;;15.83;94.67
71948;BME280;63257;55.082;38.772;2023-08-17T01:39:50;100578.84;;;15.90;94.66
71948;BME280;63257;55.082;38.772;2023-08-17T01:42:18;100576.50;;;15.86;94.77
71948;BME280;63257;55.082;38.772;2023-08-17T01:44:45;100568.91;;;15.80;95.11
71948;BME280;63257;55.082;38.772;2023-08-17T01:47:14;100561.69;;;15.82;94.89
71948;BME280;63257;55.082;38.772;2023-08-17T01:49:40;100561.69;;;15.82;95.03
71948;BME280;63257;55.082;38.772;2023-08-17T01:52:06;100573.63;;;15.89;95.04
71948;BME280;63257;55.082;38.772;2023-08-17T01:54:32;100570.78;;;15.77;95.31
71948;BME280;63257;55.082;38.772;2023-08-17T01:56:58;100563.75;;;15.76;95.65
71948;BME280;63257;55.082;38.772;2023-08-17T01:59:23;100573.56;;;15.76;96.03
71948;BME280;63257;55.082;38.772;2023-08-17T02:01:49;100577.28;;;15.73;96.23
71948;BME280;63257;55.082;38.772;2023-08-17T02:04:15;100580.88;;;15.72;96.42
71948;BME280;63257;55.082;38.772;2023-08-17T02:06:41;100568.47;;;15.58;96.47
71948;BME280;63257;55.082;38.772;2023-08-17T02:09:07;100580.72;;;15.61;96.82
71948;BME280;63257;55.082;38.772;2023-08-17T02:11:33;100572.28;;;15.54;97.37
71948;BME280;63257;55.082;38.772;2023-08-17T02:13:59;100589.66;;;15.60;97.35
71948;BME280;63257;55.082;38.772;2023-08-17T02:16:25;100583.38;;;15.61;96.97
71948;BME280;63257;55.082;38.772;2023-08-17T02:18:53;100592.09;;;15.63;97.09
71948;BME280;63257;55.082;38.772;2023-08-17T02:21:19;100588.41;;;15.66;97.21
71948;BME280;63257;55.082;38.772;2023-08-17T02:23:45;100591.94;;;15.66;97.18
71948;BME280;63257;55.082;38.772;2023-08-17T02:26:11;100584.22;;;15.61;97.57
71948;BME280;63257;55.082;38.772;2023-08-17T02:28:37;100596.47;;;15.64;97.21
71948;BME280;63257;55.082;38.772;2023-08-17T02:31:04;100593.72;;;15.66;97.54
71948;BME280;63257;55.082;38.772;2023-08-17T02:33:29;100593.72;;;15.66;97.52
71948;BME280;63257;55.082;38.772;2023-08-17T02:35:55;100588.41;;;15.66;97.19
71948;BME280;63257;55.082;38.772;2023-08-17T02:38:21;100592.66;;;15.68;96.86
71948;BME280;63257;55.082;38.772;2023-08-17T02:40:49;100586.03;;;15.61;97.22
71948;BME280;63257;55.082;38.772;2023-08-17T02:43:16;100579.31;;;15.55;97.41
71948;BME280;63257;55.082;38.772;2023-08-17T02:45:43;100590.31;;;15.64;97.54
71948;BME280;63257;55.082;38.772;2023-08-17T02:48:09;100573.13;;;15.55;97.64
71948;BME280;63257;55.082;38.772;2023-08-17T02:50:34;100589.06;;;15.69;97.55
71948;BME280;63257;55.082;38.772;2023-08-17T02:53:00;100595.13;;;15.71;97.17
71948;BME280;63257;55.082;38.772;2023-08-17T02:55:28;100593.50;;;15.69;97.42
71948;BME280;63257;55.082;38.772;2023-08-17T02:57:53;100575.50;;;15.59;97.31
71948;BME280;63257;55.082;38.772;2023-08-17T03:00:19;100595.13;;;15.71;97.11
71948;BME280;63257;55.082;38.772;2023-08-17T03:02:45;100592.66;;;15.68;97.15
71948;BME280;63257;55.082;38.772;2023-08-17T03:05:12;100594.94;;;15.74;96.70
71948;BME280;63257;55.082;38.772;2023-08-17T03:07:39;100581.28;;;15.66;96.74
71948;BME280;63257;55.082;38.772;2023-08-17T03:10:05;100595.59;;;15.78;96.66
71948;BME280;63257;55.082;38.772;2023-08-17T03:12:31;100592.09;;;15.77;96.49
71948;BME280;63257;55.082;38.772;2023-08-17T03:14:57;100602.63;;;15.79;96.19
71948;BME280;63257;55.082;38.772;2023-08-17T03:17:23;100582.81;;;15.70;96.09
71948;BME280;63257;55.082;38.772;2023-08-17T03:19:49;100602.56;;;15.81;96.25
71948;BME280;63257;55.082;38.772;2023-08-17T03:22:16;100603.75;;;15.89;95.64
71948;BME280;63257;55.082;38.772;2023-08-17T03:24:42;100597.19;;;15.95;95.10
71948;BME280;63257;55.082;38.772;2023-08-17T03:27:08;100592.81;;;15.94;94.62
71948;BME280;63257;55.082;38.772;2023-08-17T03:29:34;100605.44;;;16.05;94.37
71948;BME280;63257;55.082;38.772;2023-08-17T03:32:00;100616.31;;;16.15;93.92
71948;BME280;63257;55.082;38.772;2023-08-17T03:34:26;100612.50;;;16.19;93.42
71948;BME280;63257;55.082;38.772;2023-08-17T03:36:52;100608.03;;;16.19;93.16
71948;BME280;63257;55.082;38.772;2023-08-17T03:39:18;100599.75;;;16.24;93.09
71948;BME280;63257;55.082;38.772;2023-08-17T03:41:43;100598.78;;;16.25;92.99
71948;BME280;63257;55.082;38.772;2023-08-17T03:44:09;100597.09;;;16.24;92.68
71948;BME280;63257;55.082;38.772;2023-08-17T03:46:35;100590.59;;;16.28;92.34
71948;BME280;63257;55.082;38.772;2023-08-17T03:49:01;100614.38;;;16.44;92.13
71948;BME280;63257;55.082;38.772;2023-08-17T03:51:27;100615.13;;;16.46;91.59
71948;BME280;63257;55.082;38.772;2023-08-17T03:53:52;100613.88;;;16.52;90.94
71948;BME280;63257;55.082;38.772;2023-08-17T03:56:19;100615.16;;;16.59;90.86
71948;BME280;63257;55.082;38.772;2023-08-17T03:58:45;100614.19;;;16.60;90.94
71948;BME280;63257;55.082;38.772;2023-08-17T04:01:11;100607.72;;;16.64;91.07
71948;BME280;63257;55.082;38.772;2023-08-17T04:03:40;100611.75;;;16.70;90.40
71948;BME280;63257;55.082;38.772;2023-08-17T04:06:07;100605.78;;;16.66;89.94
71948;BME280;63257;55.082;38.772;2023-08-17T04:08:37;100596.50;;;16.72;89.70
71948;BME280;63257;55.082;38.772;2023-08-17T04:11:04;100614.25;;;16.86;89.30
71948;BME280;63257;55.082;38.772;2023-08-17T04:13:31;100607.31;;;16.83;88.88
71948;BME280;63257;55.082;38.772;2023-08-17T04:15:57;100618.00;;;16.96;88.77
71948;BME280;63257;55.082;38.772;2023-08-17T04:18:23;100620.13;;;17.04;88.44
71948;BME280;63257;55.082;38.772;2023-08-17T04:20:49;100604.13;;;17.04;87.72
71948;BME280;63257;55.082;38.772;2023-08-17T04:23:16;100611.28;;;17.16;88.10
71948;BME280;63257;55.082;38.772;2023-08-17T04:25:43;100610.59;;;17.25;87.70
71948;BME280;63257;55.082;38.772;2023-08-17T04:28:09;100617.84;;;17.36;87.34
71948;BME280;63257;55.082;38.772;2023-08-17T04:30:35;100616.53;;;17.42;86.89
71948;BME280;63257;55.082;38.772;2023-08-17T04:33:02;100621.34;;;17.50;86.20
71948;BME280;63257;55.082;38.772;2023-08-17T04:35:28;100607.28;;;17.48;86.31
71948;BME280;63257;55.082;38.772;2023-08-17T04:37:54;100614.28;;;17.61;86.89
71948;BME280;63257;55.082;38.772;2023-08-17T04:40:20;100612.97;;;17.67;86.34
71948;BME280;63257;55.082;38.772;2023-08-17T04:42:47;100616.56;;;17.79;86.10
71948;BME280;63257;55.082;38.772;2023-08-17T04:45:12;100605.16;;;17.77;85.32
71948;BME280;63257;55.082;38.772;2023-08-17T04:47:42;100609.59;;;17.89;85.89
71948;BME280;63257;55.082;38.772;2023-08-17T04:50:08;100626.47;;;18.03;84.98
71948;BME280;63257;55.082;38.772;2023-08-17T04:52:34;100614.69;;;18.05;84.82
71948;BME280;63257;55.082;38.772;2023-08-17T04:55:02;100615.59;;;18.17;85.06
71948;BME280;63257;55.082;38.772;2023-08-17T04:57:30;100611.72;;;18.21;84.37
71948;BME280;63257;55.082;38.772;2023-08-17T04:59:56;100620.88;;;18.30;83.29
71948;BME280;63257;55.082;38.772;2023-08-17T05:02:22;100622.97;;;18.38;83.54
71948;BME280;63257;55.082;38.772;2023-08-17T05:04:48;100623.09;;;18.47;84.34
71948;BME280;63257;55.082;38.772;2023-08-17T05:07:14;100617.56;;;18.51;82.84
71948;BME280;63257;55.082;38.772;2023-08-17T05:09:40;100624.13;;;18.58;81.94
71948;BME280;63257;55.082;38.772;2023-08-17T05:12:06;100625.22;;;18.67;82.30
71948;BME280;63257;55.082;38.772;2023-08-17T05:14:32;100622.22;;;18.71;82.13
71948;BME280;63257;55.082;38.772;2023-08-17T05:16:58;100618.81;;;18.80;82.25
71948;BME280;63257;55.082;38.772;2023-08-17T05:19:24;100620.94;;;18.88;81.63
71948;BME280;63257;55.082;38.772;2023-08-17T05:21:51;100612.44;;;18.94;81.53
71948;BME280;63257;55.082;38.772;2023-08-17T05:24:19;100625.34;;;19.12;80.55
71948;BME280;63257;55.082;38.772;2023-08-17T05:26:46;100623.53;;;19.24;79.71
71948;BME280;63257;55.082;38.772;2023-08-17T05:29:13;100622.31;;;19.28;78.65
71948;BME280;63257;55.082;38.772;2023-08-17T05:31:39;100595.78;;;19.13;78.25
71948;BME280;63257;55.082;38.772;2023-08-17T05:34:05;100624.16;;;19.39;78.38
71948;BME280;63257;55.082;38.772;2023-08-17T05:36:32;100626.19;;;19.46;78.87
71948;BME280;63257;55.082;38.772;2023-08-17T05:38:58;100624.00;;;19.52;78.75
71948;BME280;63257;55.082;38.772;2023-08-17T05:41:24;100622.41;;;19.60;78.56
71948;BME280;63257;55.082;38.772;2023-08-17T05:43:50;100619.94;;;19.69;77.64
71948;BME280;63257;55.082;38.772;2023-08-17T05:46:16;100607.56;;;19.67;76.83
71948;BME280;63257;55.082;38.772;2023-08-17T05:48:42;100604.63;;;19.82;77.37
71948;BME280;63257;55.082;38.772;2023-08-17T05:51:08;100611.16;;;19.89;76.42
71948;BME280;63257;55.082;38.772;2023-08-17T05:53:33;100611.28;;;19.99;76.23
71948;BME280;63257;55.082;38.772;2023-08-17T05:55:59;100613.66;;;20.13;75.37
71948;BME280;63257;55.082;38.772;2023-08-17T05:58:25;100616.44;;;20.23;76.10
71948;BME280;63257;55.082;38.772;2023-08-17T06:00:51;100610.69;;;20.28;76.08
71948;BME280;63257;55.082;38.772;2023-08-17T06:03:17;100620.97;;;20.44;75.66
71948;BME280;63257;55.082;38.772;2023-08-17T06:05:43;100626.41;;;20.54;75.95
71948;BME280;63257;55.082;38.772;2023-08-17T06:08:09;100629.28;;;20.62;74.47
71948;BME280;63257;55.082;38.772;2023-08-17T06:10:35;100622.69;;;20.66;73.50
71948;BME280;63257;55.082;38.772;2023-08-17T06:13:01;100624.75;;;20.74;73.15
71948;BME280;63257;55.082;38.772;2023-08-17T06:15:27;100627.47;;;20.83;72.48
71948;BME280;63257;55.082;38.772;2023-08-17T06:17:53;100629.53;;;20.91;73.18
71948;BME280;63257;55.082;38.772;2023-08-17T06:20:18;100612.41;;;20.92;71.06
71948;BME280;63257;55.082;38.772;2023-08-17T06:22:47;100628.50;;;21.13;69.39
71948;BME280;63257;55.082;38.772;2023-08-17T06:25:14;100629.53;;;21.22;68.94
71948;BME280;63257;55.082;38.772;2023-08-17T06:27:41;100631.41;;;21.31;67.53
71948;BME280;63257;55.082;38.772;2023-08-17T06:30:08;100621.25;;;21.35;68.25
71948;BME280;63257;55.082;38.772;2023-08-17T06:32:34;100612.66;;;21.41;68.53
71948;BME280;63257;55.082;38.772;2023-08-17T06:34:59;100620.38;;;21.56;67.60
71948;BME280;63257;55.082;38.772;2023-08-17T06:37:25;100627.88;;;21.62;66.43
71948;BME280;63257;55.082;38.772;2023-08-17T06:39:54;100620.41;;;21.65;65.20
71948;BME280;63257;55.082;38.772;2023-08-17T06:42:20;100624.66;;;21.78;65.51
71948;BME280;63257;55.082;38.772;2023-08-17T06:44:45;100605.44;;;21.82;64.29
71948;BME280;63257;55.082;38.772;2023-08-17T06:47:11;100621.88;;;21.99;64.13
71948;BME280;63257;55.082;38.772;2023-08-17T06:49:37;100629.94;;;22.09;64.00
71948;BME280;63257;55.082;38.772;2023-08-17T06:52:03;100621.88;;;22.09;63.82
71948;BME280;63257;55.082;38.772;2023-08-17T06:54:29;100624.00;;;22.15;62.76
71948;BME280;63257;55.082;38.772;2023-08-17T06:56:55;100620.06;;;22.19;62.42
71948;BME280;63257;55.082;38.772;2023-08-17T06:59:20;100613.69;;;22.30;61.69
71948;BME280;63257;55.082;38.772;2023-08-17T07:01:47;100611.88;;;22.40;61.33
71948;BME280;63257;55.082;38.772;2023-08-17T07:04:13;100609.03;;;22.42;61.39
71948;BME280;63257;55.082;38.772;2023-08-17T07:06:39;100617.66;;;22.55;60.14
71948;BME280;63257;55.082;38.772;2023-08-17T07:09:06;100610.56;;;22.64;59.42
71948;BME280;63257;55.082;38.772;2023-08-17T07:11:32;100592.31;;;22.58;60.17
71948;BME280;63257;55.082;38.772;2023-08-17T07:13:58;100611.25;;;22.76;59.16
71948;BME280;63257;55.082;38.772;2023-08-17T07:16:24;100615.34;;;22.80;59.17
71948;BME280;63257;55.082;38.772;2023-08-17T07:18:50;100609.97;;;22.80;58.72
71948;BME280;63257;55.082;38.772;2023-08-17T07:21:15;100611.53;;;22.82;58.81
71948;BME280;63257;55.082;38.772;2023-08-17T07:23:44;100605.56;;;22.79;56.85
71948;BME280;63257;55.082;38.772;2023-08-17T07:26:11;100602.84;;;22.88;57.71
71948;BME280;63257;55.082;38.772;2023-08-17T07:28:36;100600.00;;;23.00;58.02
71948;BME280;63257;55.082;38.772;2023-08-17T07:31:02;100606.78;;;23.04;57.17
71948;BME280;63257;55.082;38.772;2023-08-17T07:33:28;100605.50;;;23.18;58.24
71948;BME280;63257;55.082;38.772;2023-08-17T07:35:54;100601.78;;;23.29;58.24
71948;BME280;63257;55.082;38.772;2023-08-17T07:38:21;100594.69;;;23.28;56.81
71948;BME280;63257;55.082;38.772;2023-08-17T07:40:47;100600.06;;;23.28;56.92
71948;BME280;63257;55.082;38.772;2023-08-17T07:43:13;100603.59;;;23.28;57.25
71948;BME280;63257;55.082;38.772;2023-08-17T07:45:38;100600.16;;;23.36;57.66
71948;BME280;63257;55.082;38.772;2023-08-17T07:48:04;100600.31;;;23.34;56.32
71948;BME280;63257;55.082;38.772;2023-08-17T07:50:30;100593.38;;;23.32;54.98
71948;BME280;63257;55.082;38.772;2023-08-17T07:52:56;100593.19;;;23.43;56.17
71948;BME280;63257;55.082;38.772;2023-08-17T07:55:22;100584.72;;;23.56;53.66
71948;BME280;63257;55.082;38.772;2023-08-17T07:57:48;100601.31;;;23.79;53.91
71948;BME280;63257;55.082;38.772;2023-08-17T08:00:15;100599.47;;;23.90;53.25
71948;BME280;63257;55.082;38.772;2023-08-17T08:02:40;100593.31;;;23.87;53.76
71948;BME280;63257;55.082;38.772;2023-08-17T08:05:07;100598.56;;;23.99;53.55
71948;BME280;63257;55.082;38.772;2023-08-17T08:07:32;100602.88;;;23.82;52.11
71948;BME280;63257;55.082;38.772;2023-08-17T08:09:58;100587.25;;;23.85;52.62
71948;BME280;63257;55.082;38.772;2023-08-17T08:12:24;100592.28;;;23.98;52.64
71948;BME280;63257;55.082;38.772;2023-08-17T08:14:50;100580.19;;;24.02;51.02
71948;BME280;63257;55.082;38.772;2023-08-17T08:17:16;100575.75;;;24.11;51.35
71948;BME280;63257;55.082;38.772;2023-08-17T08:19:42;100584.69;;;23.94;51.44
71948;BME280;63257;55.082;38.772;2023-08-17T08:22:08;100585.50;;;24.12;52.38
71948;BME280;63257;55.082;38.772;2023-08-17T08:24:34;100576.66;;;24.02;51.05
71948;BME280;63257;55.082;38.772;2023-08-17T08:27:00;100582.56;;;24.05;51.02
71948;BME280;63257;55.082;38.772;2023-08-17T08:29:29;100578.66;;;24.18;51.70
71948;BME280;63257;55.082;38.772;2023-08-17T08:31:54;100589.28;;;24.37;51.21
71948;BME280;63257;55.082;38.772;2023-08-17T08:34:22;100578.34;;;24.39;49.78
71948;BME280;63257;55.082;38.772;2023-08-17T08:36:48;100581.16;;;24.55;50.72
71948;BME280;63257;55.082;38.772;2023-08-17T08:39:15;100579.06;;;24.67;49.71
71948;BME280;63257;55.082;38.772;2023-08-17T08:41:40;100573.38;;;24.52;48.96
71948;BME280;63257;55.082;38.772;2023-08-17T08:44:07;100572.91;;;24.57;48.97
71948;BME280;63257;55.082;38.772;2023-08-17T08:46:33;100581.41;;;24.62;48.28
71948;BME280;63257;55.082;38.772;2023-08-17T08:49:00;100573.50;;;24.51;49.55
71948;BME280;63257;55.082;38.772;2023-08-17T08:51:29;100578.41;;;24.47;48.84
71948;BME280;63257;55.082;38.772;2023-08-17T08:54:02;100569.44;;;24.65;49.91
71948;BME280;63257;55.082;38.772;2023-08-17T08:56:33;100570.00;;;24.77;49.28
71948;BME280;63257;55.082;38.772;2023-08-17T08:59:04;100575.25;;;24.78;48.62
71948;BME280;63257;55.082;38.772;2023-08-17T09:01:32;100573.72;;;24.76;48.64
71948;BME280;63257;55.082;38.772;2023-08-17T09:03:59;100582.72;;;24.84;47.80
71948;BME280;63257;55.082;38.772;2023-08-17T09:06:29;100578.22;;;24.93;47.69
71948;BME280;63257;55.082;38.772;2023-08-17T09:09:01;100579.41;;;24.99;47.28
71948;BME280;63257;55.082;38.772;2023-08-17T09:11:28;100579.13;;;25.02;47.11
71948;BME280;63257;55.082;38.772;2023-08-17T09:13:54;100560.34;;;25.00;47.41
71948;BME280;63257;55.082;38.772;2023-08-17T09:16:20;100571.75;;;25.20;46.85
71948;BME280;63257;55.082;38.772;2023-08-17T09:18:46;100570.16;;;25.36;46.71
71948;BME280;63257;55.082;38.772;2023-08-17T09:21:25;100563.13;;;25.43;45.83
71948;BME280;63257;55.082;38.772;2023-08-17T09:23:55;100570.72;;;25.13;46.59
71948;BME280;63257;55.082;38.772;2023-08-17T09:26:21;100565.28;;;25.05;47.45
71948;BME280;63257;55.082;38.772;2023-08-17T09:28:49;100573.69;;;24.94;46.64
71948;BME280;63257;55.082;38.772;2023-08-17T09:31:16;100563.97;;;25.09;46.71
71948;BME280;63257;55.082;38.772;2023-08-17T09:33:42;100566.72;;;25.26;46.93
71948;BME280;63257;55.082;38.772;2023-08-17T09:36:11;100571.31;;;25.33;46.90
71948;BME280;63257;55.082;38.772;2023-08-17T09:38:38;100545.03;;;25.44;47.20
71948;BME280;63257;55.082;38.772;2023-08-17T09:41:04;100547.22;;;25.48;46.42
71948;BME280;63257;55.082;38.772;2023-08-17T09:43:30;100552.69;;;25.65;45.81
71948;BME280;63257;55.082;38.772;2023-08-17T09:45:59;100546.94;;;25.51;46.11
71948;BME280;63257;55.082;38.772;2023-08-17T09:48:25;100552.50;;;25.58;45.86
71948;BME280;63257;55.082;38.772;2023-08-17T09:50:50;100553.53;;;25.65;46.68
71948;BME280;63257;55.082;38.772;2023-08-17T09:53:18;100549.94;;;25.48;45.75
71948;BME280;63257;55.082;38.772;2023-08-17T09:55:45;100545.59;;;25.55;45.03
71948;BME280;63257;55.082;38.772;2023-08-17T09:58:12;100550.66;;;25.67;45.57
71948;BME280;63257;55.082;38.772;2023-08-17T10:00:44;100545.59;;;25.64;45.46
71948;BME280;63257;55.082;38.772;2023-08-17T10:03:13;100537.13;;;25.59;45.58
71948;BME280;63257;55.082;38.772;2023-08-17T10:05:40;100557.44;;;25.71;45.22
71948;BME280;63257;55.082;38.772;2023-08-17T10:08:10;100538.16;;;25.66;44.62
71948;BME280;63257;55.082;38.772;2023-08-17T10:10:44;100538.19;;;25.74;44.91
71948;BME280;63257;55.082;38.772;2023-08-17T10:13:12;100543.25;;;25.85;44.34
71948;BME280;63257;55.082;38.772;2023-08-17T10:16:02;100546.81;;;25.78;44.42
71948;BME280;63257;55.082;38.772;2023-08-17T10:18:37;100545.28;;;25.83;44.47
71948;BME280;63257;55.082;38.772;2023-08-17T10:21:10;100536.84;;;25.78;44.38
71948;BME280;63257;55.082;38.772;2023-08-17T10:23:39;100552.91;;;25.88;45.05
71948;BME280;63257;55.082;38.772;2023-08-17T10:26:06;100544.94;;;25.86;44.74
71948;BME280;63257;55.082;38.772;2023-08-17T10:28:34;100541.91;;;25.89;44.21
71948;BME280;63257;55.082;38.772;2023-08-17T10:31:00;100539.72;;;26.01;44.51
71948;BME280;63257;55.082;38.772;2023-08-17T10:33:27;100529.91;;;26.00;44.55
71948;BME280;63257;55.082;38.772;2023-08-17T10:35:55;100544.66;;;26.06;45.29
71948;BME280;63257;55.082;38.772;2023-08-17T10:38:21;100545.97;;;25.94;43.78
71948;BME280;63257;55.082;38.772;2023-08-17T10:41:13;100549.41;;;26.04;44.44
71948;BME280;63257;55.082;38.772;2023-08-17T10:43:55;100539.59;;;26.19;44.77
71948;BME280;63257;55.082;38.772;2023-08-17T10:46:21;100535.34;;;26.41;45.31
71948;BME280;63257;55.082;38.772;2023-08-17T10:48:47;100533.13;;;26.53;44.16
71948;BME280;63257;55.082;38.772;2023-08-17T10:51:12;100532.59;;;26.58;44.57
71948;BME280;63257;55.082;38.772;2023-08-17T10:53:40;100530.63;;;26.44;43.48
71948;BME280;63257;55.082;38.772;2023-08-17T10:56:11;100536.34;;;26.40;43.53
71948;BME280;63257;55.082;38.772;2023-08-17T10:58:37;100541.28;;;26.37;43.92
71948;BME280;63257;55.082;38.772;2023-08-17T11:01:03;100533.31;;;26.44;43.67
71948;BME280;63257;55.082;38.772;2023-08-17T11:03:29;100517.28;;;26.26;43.68
71948;BME280;63257;55.082;38.772;2023-08-17T11:05:55;100531.28;;;26.37;43.89
71948;BME280;63257;55.082;38.772;2023-08-17T11:08:32;100533.66;;;26.40;43.68
71948;BME280;63257;55.082;38.772;2023-08-17T11:11:06;100517.72;;;26.62;44.17
71948;BME280;63257;55.082;38.772;2023-08-17T11:13:37;100519.25;;;26.73;43.00
71948;BME280;63257;55.082;38.772;2023-08-17T11:16:04;100516.88;;;26.70;43.36
71948;BME280;63257;55.082;38.772;2023-08-17T11:18:31;100511.22;;;26.96;44.07
71948;BME280;63257;55.082;38.772;2023-08-17T11:20:57;100505.31;;;26.84;42.19
71948;BME280;63257;55.082;38.772;2023-08-17T11:23:23;100515.84;;;26.79;43.23
71948;BME280;63257;55.082;38.772;2023-08-17T11:25:52;100503.66;;;27.15;42.04
71948;BME280;63257;55.082;38.772;2023-08-17T11:28:18;100518.41;;;27.52;40.52
71948;BME280;63257;55.082;38.772;2023-08-17T11:30:45;100508.25;;;27.77;40.40
71948;BME280;63257;55.082;38.772;2023-08-17T11:33:11;100511.34;;;27.89;40.08
71948;BME280;63257;55.082;38.772;2023-08-17T11:35:37;100510.66;;;28.18;39.71
71948;BME280;63257;55.082;38.772;2023-08-17T11:38:03;100500.28;;;28.52;39.18
71948;BME280;63257;55.082;38.772;2023-08-17T11:40:32;100497.03;;;29.01;38.31
71948;BME280;63257;55.082;38.772;2023-08-17T11:42:58;100497.53;;;28.90;38.18
71948;BME280;63257;55.082;38.772;2023-08-17T11:45:24;100500.88;;;28.92;38.82
71948;BME280;63257;55.082;38.772;2023-08-17T11:47:50;100512.22;;;28.81;38.69
71948;BME280;63257;55.082;38.772;2023-08-17T11:50:17;100503.13;;;29.18;37.91
71948;BME280;63257;55.082;38.772;2023-08-17T11:52:44;100499.94;;;29.15;37.47
71948;BME280;63257;55.082;38.772;2023-08-17T11:55:09;100481.94;;;29.28;38.09
71948;BME280;63257;55.082;38.772;2023-08-17T11:57:36;100500.22;;;29.78;36.88
71948;BME280;63257;55.082;38.772;2023-08-17T12:00:04;100488.59;;;30.12;36.80
71948;BME280;63257;55.082;38.772;2023-08-17T12:02:36;100504.53;;;29.87;35.55
71948;BME280;63257;55.082;38.772;2023-08-17T12:05:08;100493.66;;;30.16;36.63
71948;BME280;63257;55.082;38.772;2023-08-17T12:07:35;100494.00;;;30.06;36.28
71948;BME280;63257;55.082;38.772;2023-08-17T12:10:05;100487.16;;;29.88;36.26
71948;BME280;63257;55.082;38.772;2023-08-17T12:12:36;100495.28;;;30.10;36.00
71948;BME280;63257;55.082;38.772;2023-08-17T12:15:04;100485.34;;;29.95;36.31
71948;BME280;63257;55.082;38.772;2023-08-17T12:17:31;100486.44;;;30.29;35.73
71948;BME280;63257;55.082;38.772;2023-08-17T12:19:58;100484.88;;;30.42;36.05
71948;BME280;63257;55.082;38.772;2023-08-17T12:22:25;100482.09;;;31.05;35.25
71948;BME280;63257;55.082;38.772;2023-08-17T12:24:52;100476.41;;;31.69;34.14
71948;BME280;63257;55.082;38.772;2023-08-17T12:27:18;100476.88;;;31.17;33.72
71948;BME280;63257;55.082;38.772;2023-08-17T12:29:51;100484.78;;;30.99;35.79
71948;BME280;63257;55.082;38.772;2023-08-17T12:32:18;100482.56;;;30.74;35.42
71948;BME280;63257;55.082;38.772;2023-08-17T12:34:45;100482.66;;;31.01;33.92
71948;BME280;63257;55.082;38.772;2023-08-17T12:37:11;100474.25;;;31.44;33.17
71948;BME280;63257;55.082;38.772;2023-08-17T12:39:38;100476.84;;;31.99;33.05
71948;BME280;63257;55.082;38.772;2023-08-17T12:42:04;100472.84;;;32.42;33.17